createdAt,value
2019-01-16T00:02:14.291Z,100076.55
2019-01-16T00:04:49.278Z,100078.60
2019-01-16T00:07:24.311Z,100074.56
2019-01-16T00:10:11.090Z,100079.30
2019-01-16T00:12:46.203Z,100079.67
2019-01-16T00:15:37.476Z,100081.72
2019-01-16T00:18:29.248Z,100073.63
2019-01-16T00:21:09.952Z,100073.20
2019-01-16T00:23:45.229Z,100074.64
2019-01-16T00:26:22.873Z,100077.02
2019-01-16T00:28:58.020Z,100065.01
2019-01-16T00:31:32.993Z,100069.95
2019-01-16T00:34:16.861Z,100067.03
2019-01-16T00:37:04.165Z,100075.69
2019-01-16T00:39:51.150Z,100073.47
2019-01-16T00:42:29.226Z,100069.38
2019-01-16T00:45:04.226Z,100071.78
2019-01-16T00:47:54.241Z,100072.01
2019-01-16T00:50:29.242Z,100064.85
2019-01-16T00:53:19.240Z,100073.23
2019-01-16T00:56:03.093Z,100069.28
2019-01-16T00:58:38.046Z,100069.41
2019-01-16T01:01:29.147Z,100072.79
2019-01-16T01:04:04.116Z,100073.59
2019-01-16T01:06:39.488Z,100075.11
2019-01-16T01:09:14.529Z,100067.09
2019-01-16T01:11:49.693Z,100065.86
2019-01-16T01:14:24.736Z,100071.54
2019-01-16T01:17:11.912Z,100069.69
2019-01-16T01:20:03.014Z,100070.66
2019-01-16T01:22:50.277Z,100076.06
2019-01-16T01:25:43.313Z,100079.32
2019-01-16T01:28:21.541Z,100077.66
2019-01-16T01:31:04.997Z,100068.88
2019-01-16T01:33:54.943Z,100077.71
2019-01-16T01:36:46.535Z,100077.27
2019-01-16T01:39:30.597Z,100077.92
2019-01-16T01:42:05.910Z,100079.82
2019-01-16T01:44:43.823Z,100080.13
2019-01-16T01:47:21.765Z,100079.74
2019-01-16T01:49:56.765Z,100078.17
2019-01-16T01:52:50.075Z,100072.55
2019-01-16T01:55:27.523Z,100072.48
2019-01-16T01:58:02.564Z,100078.31
2019-01-16T02:00:54.434Z,100073.23
2019-01-16T02:03:41.424Z,100071.13
2019-01-16T02:06:31.447Z,100071.12
2019-01-16T02:09:11.224Z,100074.72
2019-01-16T02:11:58.096Z,100060.31
2019-01-16T02:14:38.752Z,100058.66
2019-01-16T02:17:16.175Z,100057.58
2019-01-16T02:20:01.630Z,100060.84
2019-01-16T02:22:45.485Z,100055.65
2019-01-16T02:25:32.589Z,100060.17
2019-01-16T02:28:24.042Z,100061.48
2019-01-16T02:31:11.118Z,100051.80
2019-01-16T02:33:58.180Z,100058.70
2019-01-16T02:36:33.146Z,100058.42
2019-01-16T02:39:09.220Z,100058.13
2019-01-16T02:42:00.472Z,100050.55
2019-01-16T02:44:44.070Z,100054.30
2019-01-16T02:47:35.260Z,100055.05
2019-01-16T02:50:16.379Z,100055.50
2019-01-16T02:53:07.977Z,100048.13
2019-01-16T02:56:01.164Z,100043.45
2019-01-16T02:58:52.428Z,100037.81
2019-01-16T03:01:36.467Z,100040.98
2019-01-16T03:04:14.111Z,100024.70
2019-01-16T03:06:49.127Z,100031.60
2019-01-16T03:09:32.824Z,100031.70
2019-01-16T03:12:24.271Z,100024.36
2019-01-16T03:15:02.356Z,100023.22
2019-01-16T03:17:39.823Z,100024.73
2019-01-16T03:20:31.299Z,100017.48
2019-01-16T03:23:09.047Z,100017.85
2019-01-16T03:25:46.768Z,100008.72
2019-01-16T03:28:21.753Z,100010.31
2019-01-16T03:31:02.481Z,100012.03
2019-01-16T03:33:46.409Z,100007.52
2019-01-16T03:36:37.334Z,99998.83
2019-01-16T03:39:14.971Z,99996.98
2019-01-16T03:41:50.008Z,99997.80
2019-01-16T03:44:25.089Z,100001.67
2019-01-16T03:47:00.051Z,99995.31
2019-01-16T03:49:35.049Z,99996.80
2019-01-16T03:52:12.509Z,99993.81
2019-01-16T03:54:47.522Z,99997.09
2019-01-16T03:57:22.556Z,99994.85
2019-01-16T04:00:13.832Z,99994.09
2019-01-16T04:02:51.789Z,99992.48
2019-01-16T04:05:26.766Z,99987.83
2019-01-16T04:08:19.881Z,99985.64
2019-01-16T04:11:01.086Z,99988.94
2019-01-16T04:13:52.054Z,99977.77
2019-01-16T04:16:27.382Z,99974.22
2019-01-16T04:19:05.302Z,99979.08
2019-01-16T04:21:40.307Z,99969.58
2019-01-16T04:24:20.983Z,99963.59
2019-01-16T04:27:12.151Z,99958.41
2019-01-16T04:29:50.086Z,99953.39
2019-01-16T04:32:41.413Z,99953.06
2019-01-16T04:35:28.021Z,99949.39
2019-01-16T06:43:22.436Z,99885.78
2019-01-16T06:45:57.560Z,99883.02
2019-01-16T06:48:41.169Z,99880.70
2019-01-16T06:51:22.469Z,99888.72
2019-01-16T06:53:57.575Z,99889.49
2019-01-16T06:56:32.642Z,99888.94
2019-01-16T06:59:07.827Z,99893.68
2019-01-16T07:01:49.112Z,99896.66
2019-01-16T07:04:36.051Z,99898.25
2019-01-16T07:07:19.922Z,99894.93
2019-01-16T07:09:55.091Z,99895.31
2019-01-16T07:12:46.711Z,99890.30
2019-01-16T07:15:24.598Z,99897.06
2019-01-16T07:18:05.175Z,99891.66
2019-01-16T07:20:42.779Z,99890.83
2019-01-16T07:23:33.997Z,99888.27
2019-01-16T07:26:09.168Z,99889.00
2019-01-16T07:28:44.238Z,99884.89
2019-01-16T07:31:25.246Z,99880.16
2019-01-16T07:34:09.229Z,99880.79
2019-01-16T07:36:44.338Z,99878.30
2019-01-16T07:39:31.045Z,99866.38
2019-01-16T07:42:15.137Z,99877.48
2019-01-16T07:44:50.205Z,99874.69
2019-01-16T07:47:25.305Z,99871.91
2019-01-16T07:50:03.333Z,99873.39
2019-01-16T07:52:46.916Z,99879.65
2019-01-16T07:55:27.895Z,99874.16
2019-01-16T07:58:11.815Z,99875.83
2019-01-16T08:01:02.050Z,99882.62
2019-01-16T08:03:37.158Z,99877.30
2019-01-16T08:06:18.309Z,99884.03
2019-01-16T08:09:02.683Z,99880.76
2019-01-16T08:11:37.819Z,99885.55
2019-01-16T08:14:19.046Z,99878.96
2019-01-16T08:17:10.425Z,99878.19
2019-01-16T08:20:01.437Z,99875.58
2019-01-16T08:22:36.572Z,99872.88
2019-01-16T08:25:20.517Z,99870.60
2019-01-16T08:27:55.589Z,99868.44
2019-01-16T08:30:42.737Z,99857.01
2019-01-16T08:33:17.803Z,99866.77
2019-01-16T08:36:04.926Z,99864.25
2019-01-16T08:38:42.934Z,99864.45
2019-01-16T08:41:20.778Z,99861.45
2019-01-16T08:44:01.583Z,99860.87
2019-01-16T08:49:39.110Z,99858.14
2019-01-16T08:52:32.208Z,99861.32
2019-01-16T08:55:08.255Z,99858.95
2019-01-16T08:57:43.445Z,99852.77
2019-01-16T09:00:18.520Z,99850.40
2019-01-16T09:03:12.042Z,99840.45
2019-01-16T09:05:52.968Z,99836.60
2019-01-16T09:08:40.100Z,99829.48
2019-01-16T09:11:18.057Z,99837.81
2019-01-16T09:14:02.500Z,99827.38
2019-01-16T09:16:37.592Z,99826.48
2019-01-16T09:19:18.789Z,99832.83
2019-01-16T09:22:10.449Z,99826.87
2019-01-16T09:25:00.794Z,99823.78
2019-01-16T09:27:35.941Z,99817.80
2019-01-16T09:30:16.664Z,99820.02
2019-01-16T09:32:54.875Z,99822.38
2019-01-16T09:35:36.242Z,99820.28
2019-01-16T09:38:11.390Z,99818.30
2019-01-16T09:40:49.599Z,99820.55
2019-01-16T09:43:36.899Z,99816.92
2019-01-16T09:46:30.479Z,99818.59
2019-01-16T09:49:11.465Z,99815.79
2019-01-16T09:52:03.071Z,99810.75
2019-01-16T09:54:54.652Z,99802.05
2019-01-16T09:57:29.837Z,99806.53
2019-01-16T10:00:14.032Z,99802.10
2019-01-16T10:02:52.462Z,99797.35
2019-01-16T10:05:30.702Z,99796.33
2019-01-16T10:08:06.094Z,99803.32
2019-01-16T10:10:44.257Z,99796.55
2019-01-16T10:13:22.204Z,99807.75
2019-01-16T10:16:00.346Z,99788.41
2019-01-16T10:18:44.259Z,99799.81
2019-01-16T10:21:22.284Z,99790.58
2019-01-16T10:23:57.577Z,99796.07
2019-01-16T10:26:35.588Z,99795.09
2019-01-16T10:29:19.629Z,99786.69
2019-01-16T10:31:54.790Z,99782.58
2019-01-16T10:34:45.371Z,99783.22
2019-01-16T10:37:23.127Z,99782.23
2019-01-16T10:40:16.667Z,99783.11
2019-01-16T10:42:51.813Z,99780.47
2019-01-16T10:45:45.133Z,99777.21
2019-01-16T10:48:22.933Z,99771.63
2019-01-16T10:51:14.646Z,99761.99
2019-01-16T10:53:52.503Z,99758.96
2019-01-16T10:56:27.690Z,99754.49
2019-01-16T10:59:05.518Z,99747.41
2019-01-16T11:01:52.767Z,99747.59
2019-01-16T11:04:27.920Z,99746.35
2019-01-16T11:07:05.819Z,99740.11
2019-01-16T11:09:53.215Z,99739.59
2019-01-16T11:12:45.003Z,99740.52
2019-01-16T11:15:30.060Z,99726.73
2019-01-16T11:18:11.599Z,99729.77
2019-01-16T11:20:46.741Z,99727.81
2019-01-16T11:23:27.731Z,99723.34
2019-01-16T11:26:11.797Z,99724.34
2019-01-16T11:29:03.520Z,99721.03
2019-01-16T11:31:38.676Z,99712.13
2019-01-16T11:34:16.750Z,99706.36
2019-01-16T11:36:51.904Z,99706.16
2019-01-16T11:39:43.727Z,99700.92
2019-01-16T11:42:35.259Z,99709.07
2019-01-16T11:45:19.347Z,99703.61
2019-01-16T11:48:09.477Z,99700.45
2019-01-16T11:50:56.682Z,99711.77
2019-01-16T11:53:34.666Z,99701.13
2019-01-16T11:56:12.636Z,99708.72
2019-01-16T11:58:47.694Z,99707.44
2019-01-16T12:01:39.149Z,99698.00
2019-01-16T12:04:17.000Z,99695.39
2019-01-16T12:07:04.527Z,99691.08
2019-01-16T12:09:42.612Z,99687.45
2019-01-16T12:12:23.272Z,99694.94
2019-01-16T12:14:58.414Z,99687.98
2019-01-16T12:17:49.793Z,99678.93
2019-01-16T12:20:24.938Z,99682.47
2019-01-16T12:23:09.276Z,99679.28
2019-01-16T12:25:44.418Z,99679.34
2019-01-16T12:28:35.805Z,99674.41
2019-01-16T12:31:13.974Z,99674.34
2019-01-16T12:33:49.179Z,99661.11
2019-01-16T12:36:39.362Z,99661.65
2019-01-16T12:39:32.633Z,99655.17
2019-01-16T12:42:07.777Z,99653.45
2019-01-16T12:44:43.044Z,99646.88
2019-01-16T12:47:34.704Z,99640.00
2019-01-16T12:50:28.268Z,99638.50
2019-01-16T12:53:15.740Z,99637.35
2019-01-16T12:55:50.963Z,99632.80
2019-01-16T12:58:44.109Z,99637.06
2019-01-16T13:01:37.257Z,99624.78
2019-01-16T13:04:15.241Z,99628.61
2019-01-16T13:06:52.940Z,99630.02
2019-01-16T13:09:28.085Z,99631.77
2019-01-16T13:12:03.263Z,99614.37
2019-01-16T13:14:41.078Z,99620.91
2019-01-16T13:17:22.371Z,99623.39
2019-01-16T13:20:03.537Z,99608.53
2019-01-16T13:22:54.832Z,99608.56
2019-01-16T13:25:41.959Z,99599.26
2019-01-16T13:28:33.435Z,99602.06
2019-01-16T13:31:14.823Z,99606.34
2019-01-16T13:33:50.211Z,99612.48
2019-01-16T13:36:25.352Z,99607.80
2019-01-16T13:39:09.416Z,99605.89
2019-01-16T13:41:53.486Z,99602.25
2019-01-16T13:44:28.757Z,99600.02
2019-01-16T13:47:20.355Z,99596.13
2019-01-16T13:50:01.698Z,99599.52
2019-01-16T13:52:42.751Z,99596.87
2019-01-16T13:55:34.252Z,99596.70
2019-01-16T13:58:25.573Z,99591.26
2019-01-16T14:01:00.748Z,99589.49
2019-01-16T14:03:50.896Z,99590.17
2019-01-16T14:06:29.040Z,99585.66
2019-01-16T14:09:04.180Z,99590.40
2019-01-16T14:11:57.646Z,99581.98
2019-01-16T14:14:35.358Z,99582.39
2019-01-16T14:17:16.413Z,99574.67
2019-01-16T14:20:08.349Z,99582.52
2019-01-16T14:22:43.529Z,99568.17
2019-01-16T14:25:34.890Z,99571.17
2019-01-16T14:28:26.617Z,99567.86
2019-01-16T14:31:01.723Z,99569.55
2019-01-16T14:33:51.991Z,99566.37
2019-01-16T14:36:36.001Z,99568.47
2019-01-16T14:39:30.049Z,99563.44
2019-01-16T14:42:14.224Z,99556.64
2019-01-16T14:44:55.538Z,99556.10
2019-01-16T14:47:36.529Z,99557.28
2019-01-16T14:50:12.802Z,99558.15
2019-01-16T14:53:06.035Z,99549.98
2019-01-16T14:55:41.218Z,99552.63
2019-01-16T14:58:19.350Z,99554.98
2019-01-16T15:01:11.524Z,99549.09
2019-01-16T15:03:46.661Z,99551.99
2019-01-16T15:06:27.555Z,99550.17
2019-01-16T15:09:02.689Z,99548.33
2019-01-16T15:11:47.144Z,99546.48
2019-01-16T15:14:28.297Z,99540.75
2019-01-16T15:17:06.131Z,99540.21
2019-01-16T15:19:59.402Z,99543.23
2019-01-16T15:22:34.569Z,99544.41
2019-01-16T15:25:18.949Z,99536.83
2019-01-16T15:27:57.333Z,99529.70
2019-01-16T15:30:41.491Z,99519.13
2019-01-16T15:33:16.664Z,99532.47
2019-01-16T15:35:58.339Z,99528.55
2019-01-16T15:38:51.448Z,99534.61
2019-01-16T15:41:38.449Z,99525.55
2019-01-16T15:44:25.955Z,99517.37
2019-01-16T15:47:01.106Z,99527.13
2019-01-16T15:49:36.281Z,99514.91
2019-01-16T15:52:13.086Z,99501.70
2019-01-16T15:54:51.473Z,99501.22
2019-01-16T15:57:35.380Z,99503.16
2019-01-16T16:00:13.123Z,99509.88
2019-01-16T16:02:54.289Z,99505.71
2019-01-16T16:05:35.489Z,99496.00
2019-01-16T16:08:25.727Z,99500.90
2019-01-16T16:11:03.625Z,99491.02
2019-01-16T16:13:41.293Z,99493.25
2019-01-16T16:16:19.602Z,99490.52
2019-01-16T16:18:54.676Z,99491.50
2019-01-16T16:21:44.943Z,99489.31
2019-01-16T16:24:36.320Z,99480.61
2019-01-16T16:27:17.407Z,99479.59
2019-01-16T16:29:55.470Z,99470.28
2019-01-16T16:32:36.409Z,99477.27
2019-01-16T16:35:11.575Z,99472.80
2019-01-16T16:38:04.538Z,99468.67
2019-01-16T16:40:54.386Z,99462.61
2019-01-16T16:43:29.559Z,99458.09
2019-01-16T16:46:16.962Z,99450.76
2019-01-16T16:49:10.611Z,99450.16
2019-01-16T16:51:54.477Z,99440.45
2019-01-16T16:54:46.132Z,99433.80
2019-01-16T16:57:39.360Z,99430.14
2019-01-16T17:00:31.363Z,99428.70
2019-01-16T17:03:23.017Z,99422.72
2019-01-16T17:06:07.481Z,99418.23
2019-01-16T17:08:54.705Z,99415.09
2019-01-16T17:11:29.878Z,99403.88
2019-01-16T17:14:21.364Z,99401.77
2019-01-16T17:16:59.667Z,99409.13
2019-01-16T17:19:46.734Z,99403.72
2019-01-16T17:22:24.909Z,99405.59
2019-01-16T17:24:59.975Z,99395.82
2019-01-16T17:27:41.297Z,99398.05
2019-01-16T17:30:33.112Z,99389.97
2019-01-16T17:33:23.332Z,99383.45
2019-01-16T17:36:14.759Z,99389.98
2019-01-16T17:39:06.232Z,99385.45
2019-01-16T17:41:47.135Z,99386.41
2019-01-16T17:44:38.507Z,99382.02
2019-01-16T17:47:32.045Z,99370.39
2019-01-16T17:50:19.292Z,99369.13
2019-01-16T17:53:06.458Z,99368.64
2019-01-16T17:55:56.974Z,99360.72
2019-01-16T17:58:47.151Z,99358.40
2019-01-16T18:01:22.374Z,99361.01
2019-01-16T18:04:03.635Z,99353.02
2019-01-16T18:06:41.895Z,99350.86
2019-01-16T18:09:32.207Z,99346.84
2019-01-16T18:12:10.476Z,99345.77
2019-01-16T18:14:45.664Z,99348.36
2019-01-16T18:17:23.835Z,99354.45
2019-01-16T18:20:14.941Z,99343.16
2019-01-16T18:23:01.828Z,99357.02
2019-01-16T18:25:43.086Z,99351.70
2019-01-16T18:28:23.753Z,99338.83
2019-01-16T18:31:14.044Z,99342.65
2019-01-16T18:33:55.215Z,99336.70
2019-01-16T18:36:33.020Z,99334.95
2019-01-16T18:39:26.438Z,99345.13
2019-01-16T18:42:01.737Z,99342.70
2019-01-16T18:44:45.736Z,99340.91
2019-01-16T18:47:21.064Z,99323.40
2019-01-16T18:50:01.924Z,99327.03
2019-01-16T18:52:55.298Z,99314.73
2019-01-16T18:55:32.847Z,99306.28
2019-01-16T18:58:24.160Z,99301.28
2019-01-16T19:00:59.299Z,99286.12
2019-01-16T19:03:43.270Z,99296.28
2019-01-16T19:06:35.229Z,99287.63
2019-01-16T19:09:16.989Z,99288.03
2019-01-16T19:11:57.932Z,99290.19
2019-01-16T19:14:35.586Z,99296.08
2019-01-16T19:17:16.606Z,99277.09
2019-01-16T19:19:54.648Z,99281.17
2019-01-16T19:22:38.896Z,99275.83
2019-01-16T19:25:14.115Z,99287.00
2019-01-16T19:30:46.368Z,99279.29
2019-01-16T19:33:21.440Z,99282.21
2019-01-16T19:35:59.675Z,99278.08
2019-01-16T19:38:52.784Z,99274.65
2019-01-16T19:41:30.780Z,99279.81
2019-01-16T19:44:08.862Z,99272.78
2019-01-16T19:47:00.582Z,99270.16
2019-01-16T19:49:35.707Z,99267.20
2019-01-16T19:52:13.854Z,99266.64
2019-01-16T19:55:00.858Z,99263.13
2019-01-16T19:57:38.605Z,99249.50
2019-01-16T20:00:19.456Z,99245.27
2019-01-16T20:03:11.048Z,99237.59
2019-01-16T20:05:46.101Z,99247.88
2019-01-16T20:08:21.219Z,99234.69
2019-01-16T20:11:07.842Z,99222.89
2019-01-16T20:13:52.315Z,99228.56
2019-01-16T20:16:43.712Z,99216.14
2019-01-16T20:19:34.313Z,99215.72
2019-01-16T20:22:12.294Z,99210.42
2019-01-16T20:25:05.803Z,99203.20
2019-01-16T20:27:56.977Z,99204.75
2019-01-16T20:30:48.611Z,99202.70
2019-01-16T20:33:26.727Z,99199.59
2019-01-16T20:36:07.589Z,99203.39
2019-01-16T20:38:45.779Z,99187.76
2019-01-16T20:41:37.625Z,99192.41
2019-01-16T20:44:28.175Z,99177.70
2019-01-16T20:47:03.433Z,99167.91
2019-01-16T20:49:55.101Z,99170.73
2019-01-16T20:52:30.352Z,99169.08
2019-01-16T20:55:06.105Z,99155.39
2019-01-16T20:57:44.000Z,99157.39
2019-01-16T21:00:19.704Z,99148.49
2019-01-16T21:03:03.734Z,99142.25
2019-01-16T21:05:42.488Z,99134.44
2019-01-16T21:08:17.663Z,99141.53
2019-01-16T21:11:08.794Z,99138.44
2019-01-16T21:13:56.736Z,99135.61
2019-01-16T21:16:40.918Z,99134.40
2019-01-16T21:19:31.108Z,99124.50
2019-01-16T21:22:14.854Z,99121.89
2019-01-16T21:25:08.551Z,99115.90
2019-01-16T21:27:59.530Z,99098.45
2019-01-16T21:30:51.241Z,99108.96
2019-01-16T21:33:43.425Z,99113.60
2019-01-16T21:36:18.696Z,99106.73
2019-01-16T21:39:05.951Z,99100.09
2019-01-16T21:41:41.051Z,99098.30
2019-01-16T21:44:16.184Z,99100.58
2019-01-16T21:46:57.302Z,99081.75
2019-01-16T21:49:35.182Z,99082.92
2019-01-16T21:52:20.431Z,99079.92
2019-01-16T21:54:55.582Z,99076.22
2019-01-16T21:57:36.421Z,99084.45
2019-01-16T22:00:22.896Z,99076.86
2019-01-16T22:03:07.146Z,99077.41
2019-01-16T22:05:48.201Z,99074.29
2019-01-16T22:08:39.234Z,99061.41
2019-01-16T22:11:17.103Z,99066.31
2019-01-16T22:14:07.233Z,99068.79
2019-01-16T22:16:45.006Z,99060.02
2019-01-16T22:19:20.093Z,99059.48
2019-01-16T22:22:10.597Z,99053.80
2019-01-16T22:24:45.772Z,99051.88
2019-01-16T22:27:39.381Z,99037.44
2019-01-16T22:30:22.848Z,99028.78
2019-01-16T22:33:00.962Z,99029.59
2019-01-16T22:35:53.952Z,99022.90
2019-01-16T22:38:34.914Z,99014.59
2019-01-16T22:41:26.006Z,99013.53
2019-01-16T22:44:01.068Z,99006.80
2019-01-16T22:46:39.115Z,98986.70
2019-01-16T22:49:16.927Z,98995.44
2019-01-16T22:51:55.147Z,98991.91
2019-01-16T22:54:46.805Z,98986.93
2019-01-16T22:57:27.751Z,98984.73
2019-01-16T23:00:02.889Z,98989.70
2019-01-16T23:02:53.118Z,98976.55
2019-01-16T23:05:36.672Z,98972.70
2019-01-16T23:08:14.668Z,98970.72
2019-01-16T23:10:55.718Z,98963.55
2019-01-16T23:13:30.888Z,98960.47
2019-01-16T23:16:15.076Z,98952.65
2019-01-16T23:18:50.250Z,98944.49
2019-01-16T23:21:40.739Z,98948.20
2019-01-16T23:24:31.210Z,98943.38
2019-01-16T23:27:09.257Z,98936.77
2019-01-16T23:29:50.380Z,98927.47
2019-01-16T23:32:24.230Z,98939.00
2019-01-16T23:35:08.552Z,98931.38
2019-01-16T23:37:49.843Z,98937.73
2019-01-16T23:40:37.037Z,98938.96
2019-01-16T23:43:20.758Z,98928.56
2019-01-16T23:45:58.948Z,98917.16
2019-01-16T23:48:34.078Z,98916.63
2019-01-16T23:51:09.181Z,98913.34
2019-01-16T23:54:00.509Z,98922.31
2019-01-16T23:56:44.647Z,98918.27
2019-01-16T23:59:36.393Z,98912.97
